Time;durP1;ratioP1;P1;durP2;ratioP2;P2;SDS_P1;SDS_P2;PMS_P1;PMS_P2;Temp;Humidity;BMP_temperature;BMP_pressure;BME280_temperature;BME280_humidity;BME280_pressure;Samples;Min_cycle;Max_cycle;Signal;HPM_P1;HPM_P2
2021/08/14 00:01:24;;;;;;;;;;;;;;;22.15;63.43;101943.66;1587759;38;152017;-53
2021/08/14 00:02:56;;;;;;;;;;;;;;;22.15;63.35;101945.63;1589888;38;152071;-53
2021/08/14 00:04:29;;;;;;;;;;;;;;;22.14;63.11;101939.13;1591609;38;154059;-53
2021/08/14 00:06:01;;;;;;;;;;;;;;;22.14;63.28;101947.59;1588411;38;153373;-53
2021/08/14 00:07:32;;;;;;;;;;;;;;;22.14;63.45;101943.94;1588896;38;152938;-53
2021/08/14 00:09:05;;;;;;;;;;;;;;;22.14;63.54;101944.78;1585941;38;154004;-53
2021/08/14 00:10:37;;;;;;;;;;;;;;;22.13;63.52;101940.28;1588250;38;152245;-52
2021/08/14 00:12:09;;;;;;;;;;;;;;;22.13;63.55;101945.06;1588810;38;154076;-53
2021/08/14 00:13:41;;;;;;;;;;;;;;;22.13;63.39;101937.44;1586255;38;152795;-53
2021/08/14 00:15:15;;;;;;;;;;;;;;;22.12;63.63;101947.03;1588567;38;153779;-53
2021/08/14 00:16:47;;;;;;;;;;;;;;;22.13;63.60;101939.44;1588241;38;152817;-53
2021/08/14 00:18:19;;;;;;;;;;;;;;;22.12;63.24;101941.41;1587208;38;154088;-51
2021/08/14 00:19:51;;;;;;;;;;;;;;;22.12;63.29;101935.75;1588766;30;153009;-53
2021/08/14 00:21:24;;;;;;;;;;;;;;;22.12;63.75;101935.75;1587725;30;153350;-54
2021/08/14 00:22:59;;;;;;;;;;;;;;;22.13;63.30;101930.97;1588849;38;154050;-53
2021/08/14 00:24:39;;;;;;;;;;;;;;;22.11;63.85;101928.47;1585224;38;155074;-53
2021/08/14 00:26:11;;;;;;;;;;;;;;;22.12;63.84;101937.78;1591004;38;152771;-53
2021/08/14 00:27:43;;;;;;;;;;;;;;;22.12;63.61;101934.97;1589078;38;154355;-53
2021/08/14 00:29:14;;;;;;;;;;;;;;;22.09;63.69;101927.94;1588938;38;153419;-53
2021/08/14 00:30:46;;;;;;;;;;;;;;;22.11;63.38;101936.09;1589469;30;153658;-52
2021/08/14 00:32:18;;;;;;;;;;;;;;;22.09;63.64;101933.56;1586742;38;154172;-53
2021/08/14 00:33:53;;;;;;;;;;;;;;;22.09;63.65;101927.94;1588665;38;153430;-52
2021/08/14 00:35:25;;;;;;;;;;;;;;;22.09;63.90;101921.44;1589173;38;154163;-53
2021/08/14 00:36:56;;;;;;;;;;;;;;;22.09;63.62;101925.13;1587041;38;154105;-53
2021/08/14 00:38:31;;;;;;;;;;;;;;;22.08;63.89;101925.41;1587177;38;153389;-53
2021/08/14 00:40:05;;;;;;;;;;;;;;;22.07;63.47;101924.59;1589571;38;154026;-53
2021/08/14 00:41:37;;;;;;;;;;;;;;;22.08;63.89;101923.41;1586824;30;153564;-52
2021/08/14 00:43:09;;;;;;;;;;;;;;;22.07;63.80;101916.13;1588154;38;153074;-53
2021/08/14 00:44:42;;;;;;;;;;;;;;;22.07;63.90;101909.66;1587639;38;153738;-53
2021/08/14 00:46:14;;;;;;;;;;;;;;;22.07;63.72;101910.50;1586591;38;153556;-53
2021/08/14 00:47:46;;;;;;;;;;;;;;;22.06;63.79;101916.44;1590271;38;154254;-52
2021/08/14 00:49:18;;;;;;;;;;;;;;;22.06;64.00;101914.44;1589551;38;152528;-53
2021/08/14 00:50:50;;;;;;;;;;;;;;;22.06;63.60;101910.78;1588758;38;152106;-53
2021/08/14 00:52:23;;;;;;;;;;;;;;;22.06;64.00;101907.97;1587266;38;152342;-53
2021/08/14 00:53:55;;;;;;;;;;;;;;;22.05;63.90;101918.41;1589440;30;152102;-53
2021/08/14 00:55:27;;;;;;;;;;;;;;;22.04;63.71;101913.91;1589495;38;151973;-53
2021/08/14 00:56:58;;;;;;;;;;;;;;;22.04;63.78;101913.91;1588414;38;152429;-53
2021/08/14 00:58:31;;;;;;;;;;;;;;;22.04;64.02;101918.69;1589196;30;152334;-53
2021/08/14 01:00:04;;;;;;;;;;;;;;;22.05;63.93;101917.56;1589417;30;151984;-53
2021/08/14 01:01:35;;;;;;;;;;;;;;;22.04;63.63;101905.44;1588060;38;151834;-53
2021/08/14 01:03:08;;;;;;;;;;;;;;;22.03;63.84;101905.78;1589710;38;152035;-53
2021/08/14 01:04:40;;;;;;;;;;;;;;;22.02;64.11;101907.75;1588101;38;152247;-53
2021/08/14 01:06:15;;;;;;;;;;;;;;;22.03;64.12;101902.94;1588860;38;152155;-53
2021/08/14 01:07:47;;;;;;;;;;;;;;;22.00;64.28;101901.56;1589414;38;151978;-53
2021/08/14 01:09:19;;;;;;;;;;;;;;;21.95;64.10;101900.75;1590784;38;151949;-53
2021/08/14 01:10:51;;;;;;;;;;;;;;;21.92;64.24;101902.16;1588745;30;153457;-53
2021/08/14 01:12:23;;;;;;;;;;;;;;;21.91;64.49;101897.66;1588127;38;153584;-53
2021/08/14 01:13:56;;;;;;;;;;;;;;;21.92;64.30;101901.31;1588864;38;153301;-53
2021/08/14 01:15:31;;;;;;;;;;;;;;;21.92;64.40;101904.13;1588689;38;152766;-53
2021/08/14 01:17:03;;;;;;;;;;;;;;;21.91;64.61;101896.81;1587692;38;154107;-53
2021/08/14 01:18:43;;;;;;;;;;;;;;;21.93;64.71;101897.41;1589075;38;152925;-53
2021/08/14 01:20:18;;;;;;;;;;;;;;;21.88;64.84;101886.16;1589819;30;153948;-52
2021/08/14 01:21:50;;;;;;;;;;;;;;;21.92;64.29;101890.06;1589691;30;153680;-53
2021/08/14 01:23:22;;;;;;;;;;;;;;;21.94;64.39;101893.47;1588834;38;153800;-53
2021/08/14 01:24:54;;;;;;;;;;;;;;;21.92;64.34;101890.06;1588361;30;153236;-53
2021/08/14 01:26:30;;;;;;;;;;;;;;;21.94;64.36;101890.66;1587933;38;153184;-53
2021/08/14 01:28:02;;;;;;;;;;;;;;;21.96;64.67;101888.38;1587926;38;153575;-54
2021/08/14 01:29:37;;;;;;;;;;;;;;;21.98;64.62;101886.94;1589863;38;153589;-54
2021/08/14 01:31:10;;;;;;;;;;;;;;;21.99;64.60;101887.75;1590585;38;152936;-53
2021/08/14 01:32:45;;;;;;;;;;;;;;;22.02;64.43;101901.25;1586516;38;154442;-53
2021/08/14 01:34:20;;;;;;;;;;;;;;;22.03;64.35;101892.50;1588691;30;153441;-53
2021/08/14 01:35:53;;;;;;;;;;;;;;;22.04;64.04;101891.38;1589078;38;154174;-53
2021/08/14 01:37:25;;;;;;;;;;;;;;;22.06;64.27;101893.91;1591046;30;154046;-53
2021/08/14 01:38:59;;;;;;;;;;;;;;;22.07;64.30;101892.78;1589157;38;153550;-53
2021/08/14 01:40:31;;;;;;;;;;;;;;;22.04;63.97;101885.75;1587843;38;153498;-53
2021/08/14 01:42:03;;;;;;;;;;;;;;;22.06;64.31;101891.09;1589481;30;154301;-53
2021/08/14 01:43:45;;;;;;;;;;;;;;;22.05;64.20;101883.78;1587960;30;154366;-53
2021/08/14 01:45:17;;;;;;;;;;;;;;;22.06;64.15;101882.66;1589753;38;154533;-53
2021/08/14 01:46:48;;;;;;;;;;;;;;;22.06;63.93;101879.84;1586726;30;152617;-53
2021/08/14 01:48:20;;;;;;;;;;;;;;;22.06;63.79;101879.84;1588403;38;153264;-53
2021/08/14 01:49:52;;;;;;;;;;;;;;;22.07;63.95;101875.91;1589076;38;154672;-53
2021/08/14 01:51:25;;;;;;;;;;;;;;;22.06;64.21;101880.69;1589641;38;154006;-53
2021/08/14 01:52:57;;;;;;;;;;;;;;;22.08;63.95;101886.00;1588442;38;154148;-53
2021/08/14 01:54:31;;;;;;;;;;;;;;;22.07;63.81;101878.72;1589531;38;154325;-53
2021/08/14 01:56:03;;;;;;;;;;;;;;;22.06;63.74;101872.22;1586642;38;152200;-53
2021/08/14 01:57:35;;;;;;;;;;;;;;;22.06;64.07;101868.56;1587900;38;152378;-53
2021/08/14 01:59:08;;;;;;;;;;;;;;;22.05;64.13;101869.72;1588773;38;151725;-54
2021/08/14 02:00:40;;;;;;;;;;;;;;;22.05;63.71;101869.72;1588817;38;152076;-53
2021/08/14 02:02:12;;;;;;;;;;;;;;;22.05;63.71;101867.72;1588851;38;152423;-53
2021/08/14 02:03:46;;;;;;;;;;;;;;;22.04;63.94;101870.84;1587004;38;152238;-54
2021/08/14 02:05:18;;;;;;;;;;;;;;;22.03;64.04;101872.81;1589727;30;152562;-53
2021/08/14 02:06:50;;;;;;;;;;;;;;;22.04;63.95;101865.22;1590153;38;152098;-53
2021/08/14 02:08:22;;;;;;;;;;;;;;;22.03;63.56;101869.19;1587708;38;152448;-52
2021/08/14 02:09:54;;;;;;;;;;;;;;;22.03;63.79;101858.72;1587194;38;155499;-54
2021/08/14 02:11:30;;;;;;;;;;;;;;;22.03;64.01;101872.81;1588400;38;152108;-53
2021/08/14 02:13:02;;;;;;;;;;;;;;;22.04;63.83;101862.41;1587136;38;152356;-53
2021/08/14 02:14:36;;;;;;;;;;;;;;;22.03;64.00;101866.38;1588492;38;151841;-53
2021/08/14 02:16:09;;;;;;;;;;;;;;;22.03;63.84;101866.38;1591357;38;152278;-52
2021/08/14 02:17:41;;;;;;;;;;;;;;;22.02;63.97;101868.34;1587061;38;153019;-54
2021/08/14 02:19:13;;;;;;;;;;;;;;;22.03;63.46;101869.19;1588180;38;153381;-53
2021/08/14 02:20:45;;;;;;;;;;;;;;;22.03;63.92;101870.00;1587958;38;153304;-52
2021/08/14 02:22:18;;;;;;;;;;;;;;;22.03;63.99;101869.19;1588861;38;153561;-53
2021/08/14 02:23:50;;;;;;;;;;;;;;;22.02;63.56;101870.31;1590083;30;153898;-53
2021/08/14 02:25:22;;;;;;;;;;;;;;;21.99;63.91;101871.72;1588853;38;154036;-53
2021/08/14 02:26:54;;;;;;;;;;;;;;;22.00;63.46;101869.75;1589087;38;153361;-53
2021/08/14 02:28:27;;;;;;;;;;;;;;;22.02;63.92;101875.94;1588143;38;154102;-53
2021/08/14 02:29:59;;;;;;;;;;;;;;;22.01;63.62;101863.00;1585843;30;152175;-52
2021/08/14 02:31:31;;;;;;;;;;;;;;;22.01;63.65;101868.63;1587684;38;153000;-53
2021/08/14 02:33:03;;;;;;;;;;;;;;;22.00;63.89;101869.75;1588630;38;153280;-53
2021/08/14 02:34:35;;;;;;;;;;;;;;;21.99;63.71;101871.72;1587901;38;153959;-54
2021/08/14 02:36:08;;;;;;;;;;;;;;;21.98;63.96;101867.25;1587285;38;153317;-53
2021/08/14 02:37:40;;;;;;;;;;;;;;;21.95;64.02;101858.53;1588935;38;152815;-54
2021/08/14 02:39:12;;;;;;;;;;;;;;;21.98;63.50;101860.78;1587087;38;154084;-52
2021/08/14 02:40:47;;;;;;;;;;;;;;;22.00;63.50;101864.13;1586746;38;154326;-52
2021/08/14 02:42:19;;;;;;;;;;;;;;;21.97;63.68;101862.75;1589644;38;153928;-53
2021/08/14 02:43:51;;;;;;;;;;;;;;;21.94;63.77;101854.88;1587273;38;153667;-53
2021/08/14 02:45:23;;;;;;;;;;;;;;;21.94;63.80;101871.75;1586234;38;153387;-53
2021/08/14 02:46:54;;;;;;;;;;;;;;;21.93;64.01;101858.00;1585343;38;154062;-53
2021/08/14 02:48:27;;;;;;;;;;;;;;;21.93;63.83;101858.84;1586474;30;153751;-52
2021/08/14 02:49:59;;;;;;;;;;;;;;;21.94;63.62;101859.69;1587841;38;154312;-52
2021/08/14 02:51:31;;;;;;;;;;;;;;;21.91;63.63;101863.06;1587250;38;153538;-53
2021/08/14 02:53:03;;;;;;;;;;;;;;;21.89;64.05;101854.94;1588259;38;156069;-53
2021/08/14 02:54:35;;;;;;;;;;;;;;;21.92;63.63;101861.94;1587430;30;153491;-53
2021/08/14 02:56:07;;;;;;;;;;;;;;;21.91;64.07;101861.09;1588920;38;155098;-52
2021/08/14 02:57:38;;;;;;;;;;;;;;;21.92;63.50;101859.94;1587622;38;154015;-53
2021/08/14 02:59:10;;;;;;;;;;;;;;;21.91;64.00;101861.09;1587878;38;154670;-53
2021/08/14 03:00:42;;;;;;;;;;;;;;;21.91;63.57;101854.63;1589243;30;152453;-53
2021/08/14 03:02:14;;;;;;;;;;;;;;;21.89;63.84;101852.13;1588569;38;152478;-54
2021/08/14 03:03:46;;;;;;;;;;;;;;;21.88;63.94;101850.44;1588461;30;154997;-53
2021/08/14 03:05:18;;;;;;;;;;;;;;;21.88;64.01;101856.06;1588044;38;151910;-53
2021/08/14 03:06:53;;;;;;;;;;;;;;;21.87;63.62;101848.75;1587638;38;152362;-53
2021/08/14 03:08:25;;;;;;;;;;;;;;;21.88;63.59;101856.06;1588328;38;152519;-53
2021/08/14 03:09:57;;;;;;;;;;;;;;;21.87;63.65;101853.53;1586470;38;151918;-53
2021/08/14 03:11:28;;;;;;;;;;;;;;;21.88;63.79;101846.78;1586101;38;152161;-53
2021/08/14 03:13:02;;;;;;;;;;;;;;;21.85;63.67;101851.00;1585869;38;152732;-53
2021/08/14 03:14:34;;;;;;;;;;;;;;;21.86;63.50;101852.69;1588534;38;152111;-53
2021/08/14 03:16:05;;;;;;;;;;;;;;;21.89;63.44;101852.13;1588571;30;152303;-53
2021/08/14 03:17:37;;;;;;;;;;;;;;;21.91;63.60;101846.16;1586923;38;151918;-53
2021/08/14 03:19:09;;;;;;;;;;;;;;;21.87;63.72;101848.75;1587456;38;152237;-53
2021/08/14 03:20:41;;;;;;;;;;;;;;;21.88;63.42;101855.22;1589663;30;152000;-53
2021/08/14 03:22:13;;;;;;;;;;;;;;;21.86;63.41;101849.03;1590835;38;152002;-53
2021/08/14 03:23:45;;;;;;;;;;;;;;;21.85;63.70;101851.00;1588096;38;153377;-53
2021/08/14 03:25:17;;;;;;;;;;;;;;;21.87;63.45;101847.91;1588640;38;153719;-53
2021/08/14 03:26:49;;;;;;;;;;;;;;;21.87;63.42;101843.13;1588033;38;153900;-52
2021/08/14 03:28:21;;;;;;;;;;;;;;;21.88;63.39;101846.78;1586045;38;153288;-53
2021/08/14 03:29:53;;;;;;;;;;;;;;;21.89;63.38;101851.28;1587237;30;152941;-52
2021/08/14 03:31:25;;;;;;;;;;;;;;;21.87;63.31;101840.31;1588400;38;153501;-53
2021/08/14 03:32:56;;;;;;;;;;;;;;;21.85;63.42;101844.56;1587591;38;153532;-53
2021/08/14 03:34:28;;;;;;;;;;;;;;;21.83;63.90;101844.84;1586376;38;153666;-53
2021/08/14 03:36:00;;;;;;;;;;;;;;;21.82;63.65;101845.13;1586901;38;153289;-53
2021/08/14 03:37:32;;;;;;;;;;;;;;;21.81;63.47;101844.28;1586433;38;152768;-53
2021/08/14 03:39:04;;;;;;;;;;;;;;;21.80;63.90;101842.63;1588587;38;151980;-53
2021/08/14 03:40:35;;;;;;;;;;;;;;;21.79;63.64;101846.56;1588906;38;153387;-53
2021/08/14 03:42:07;;;;;;;;;;;;;;;21.79;63.73;101845.72;1587495;38;153233;-53
2021/08/14 03:43:39;;;;;;;;;;;;;;;21.78;63.57;101844.88;1591004;30;153321;-52
2021/08/14 03:45:11;;;;;;;;;;;;;;;21.81;63.78;101851.88;1587895;38;153522;-53
2021/08/14 03:46:43;;;;;;;;;;;;;;;21.81;63.50;101844.28;1586333;30;154539;-53
2021/08/14 03:48:15;;;;;;;;;;;;;;;21.81;63.56;101838.66;1586951;38;153484;-53
2021/08/14 03:49:47;;;;;;;;;;;;;;;21.81;63.48;101833.03;1586731;38;152648;-53
2021/08/14 03:51:19;;;;;;;;;;;;;;;21.83;63.67;101842.03;1588874;38;153732;-53
2021/08/14 03:52:51;;;;;;;;;;;;;;;21.82;63.74;101840.34;1586617;30;153379;-53
2021/08/14 03:54:23;;;;;;;;;;;;;;;21.80;63.30;101834.19;1586569;38;154342;-54
2021/08/14 03:55:55;;;;;;;;;;;;;;;21.81;63.61;101833.03;1588677;38;154041;-53
2021/08/14 03:57:27;;;;;;;;;;;;;;;21.80;63.39;101836.16;1588578;38;154807;-53
2021/08/14 03:58:59;;;;;;;;;;;;;;;21.80;63.48;101833.34;1587163;38;155203;-53
2021/08/14 04:00:31;;;;;;;;;;;;;;;21.81;63.31;101832.19;1585731;38;154363;-54
2021/08/14 04:02:03;;;;;;;;;;;;;;;21.82;63.69;101833.88;1589087;30;153453;-53
2021/08/14 04:03:35;;;;;;;;;;;;;;;21.81;63.27;101830.22;1586247;38;154275;-53
2021/08/14 04:05:07;;;;;;;;;;;;;;;21.81;63.63;101833.03;1589644;38;153409;-53
2021/08/14 04:06:39;;;;;;;;;;;;;;;21.80;63.77;101833.34;1588031;38;152045;-52
2021/08/14 04:08:10;;;;;;;;;;;;;;;21.78;63.43;101835.59;1585391;38;152233;-53
2021/08/14 04:09:42;;;;;;;;;;;;;;;21.78;63.32;101832.78;1586433;38;152106;-53
2021/08/14 04:11:14;;;;;;;;;;;;;;;21.78;63.20;101833.63;1588359;38;152968;-53
2021/08/14 04:12:46;;;;;;;;;;;;;;;21.79;63.47;101828.84;1588192;38;152412;-53
2021/08/14 04:14:19;;;;;;;;;;;;;;;21.79;63.38;101831.66;1586495;38;152949;-53
2021/08/14 04:15:51;;;;;;;;;;;;;;;21.78;63.26;101836.44;1590241;30;152684;-53
2021/08/14 04:17:23;;;;;;;;;;;;;;;21.79;63.66;101826.03;1587315;38;152760;-53
2021/08/14 04:18:55;;;;;;;;;;;;;;;21.78;63.26;101829.97;1587491;38;152765;-53
2021/08/14 04:20:26;;;;;;;;;;;;;;;21.79;63.09;101840.94;1587249;38;152330;-53
2021/08/14 04:22:00;;;;;;;;;;;;;;;21.80;63.34;101836.16;1589355;30;151841;-53
2021/08/14 04:23:32;;;;;;;;;;;;;;;21.78;63.16;101832.78;1588101;38;151835;-53
2021/08/14 04:25:05;;;;;;;;;;;;;;;21.75;63.59;101831.44;1586423;38;152322;-52
2021/08/14 04:26:37;;;;;;;;;;;;;;;21.75;63.47;101837.06;1589451;30;152148;-53
2021/08/14 04:28:09;;;;;;;;;;;;;;;21.75;63.59;101848.31;1587616;38;152861;-53
2021/08/14 04:29:40;;;;;;;;;;;;;;;21.76;63.61;101829.47;1586827;38;153918;-53
2021/08/14 04:31:12;;;;;;;;;;;;;;;21.76;63.52;101829.47;1585761;38;154175;-52
2021/08/14 04:32:44;;;;;;;;;;;;;;;21.76;63.49;101829.47;1588407;38;155633;-53
2021/08/14 04:34:16;;;;;;;;;;;;;;;21.75;63.33;101834.25;1587386;38;153418;-52
2021/08/14 04:35:49;;;;;;;;;;;;;;;21.74;63.47;101832.56;1587297;38;153282;-53
2021/08/14 04:37:21;;;;;;;;;;;;;;;21.73;63.24;101831.72;1587651;38;153084;-53
2021/08/14 04:38:52;;;;;;;;;;;;;;;21.73;63.27;101826.09;1587806;38;153982;-53
2021/08/14 04:40:24;;;;;;;;;;;;;;;21.76;63.08;101838.69;1585926;31;153360;-53
2021/08/14 04:41:56;;;;;;;;;;;;;;;21.77;63.25;101831.09;1588271;38;153130;-53
2021/08/14 04:43:28;;;;;;;;;;;;;;;21.74;63.44;101833.41;1586161;38;153279;-52
2021/08/14 04:45:00;;;;;;;;;;;;;;;21.75;62.97;101828.63;1586835;38;153526;-53
2021/08/14 04:46:32;;;;;;;;;;;;;;;21.74;63.13;101838.19;1588141;38;153545;-53
2021/08/14 04:48:04;;;;;;;;;;;;;;;21.76;63.40;101832.25;1589283;38;153929;-53
2021/08/14 04:49:35;;;;;;;;;;;;;;;21.74;63.04;101838.19;1584892;38;153458;-53
2021/08/14 04:51:07;;;;;;;;;;;;;;;21.75;63.01;101837.06;1586476;38;153578;-53
2021/08/14 04:52:39;;;;;;;;;;;;;;;21.72;63.44;101832.84;1588645;38;153379;-53
2021/08/14 04:54:11;;;;;;;;;;;;;;;21.73;63.44;101837.34;1586928;38;153648;-54
2021/08/14 04:55:43;;;;;;;;;;;;;;;21.74;63.04;101839.03;1588938;30;154467;-52
2021/08/14 04:57:15;;;;;;;;;;;;;;;21.75;63.41;101837.06;1588291;38;153434;-52
2021/08/14 04:58:47;;;;;;;;;;;;;;;21.73;63.43;101848.59;1587852;30;154420;-53
2021/08/14 05:00:19;;;;;;;;;;;;;;;21.71;63.23;101850.84;1588496;38;153370;-53
2021/08/14 05:01:50;;;;;;;;;;;;;;;21.73;63.13;101840.16;1588618;38;153608;-53
2021/08/14 05:03:23;;;;;;;;;;;;;;;21.73;63.00;101844.94;1587199;38;154726;-53
2021/08/14 05:04:54;;;;;;;;;;;;;;;21.71;62.94;101848.03;1588747;38;154004;-53
2021/08/14 05:06:26;;;;;;;;;;;;;;;21.68;63.36;101848.63;1587822;38;154026;-53
2021/08/14 05:07:58;;;;;;;;;;;;;;;21.69;63.08;101853.13;1588556;38;153986;-54
2021/08/14 05:09:30;;;;;;;;;;;;;;;21.70;63.31;101849.19;1587014;38;153379;-53
2021/08/14 05:11:02;;;;;;;;;;;;;;;21.69;63.52;101846.66;1590927;38;153486;-53
2021/08/14 05:12:37;;;;;;;;;;;;;;;21.65;63.38;101846.41;1585641;30;152147;-53
2021/08/14 05:14:09;;;;;;;;;;;;;;;21.68;63.11;101850.59;1586285;38;152118;-53
2021/08/14 05:15:41;;;;;;;;;;;;;;;21.66;63.41;101848.09;1588848;38;152863;-53
2021/08/14 05:17:13;;;;;;;;;;;;;;;21.68;63.27;101853.41;1586780;38;152164;-53
2021/08/14 05:18:44;;;;;;;;;;;;;;;21.69;63.09;101853.13;1586957;38;152221;-53
2021/08/14 05:20:16;;;;;;;;;;;;;;;21.70;63.03;101845.53;1589192;30;152039;-52
2021/08/14 05:21:48;;;;;;;;;;;;;;;21.71;62.96;101852.84;1587818;38;152524;-53
2021/08/14 05:23:20;;;;;;;;;;;;;;;21.68;63.19;101845.81;1588631;38;152508;-53
2021/08/14 05:24:52;;;;;;;;;;;;;;;21.67;63.10;101855.38;1587410;30;152090;-53
2021/08/14 05:26:23;;;;;;;;;;;;;;;21.67;63.25;101849.75;1586866;38;151939;-53
2021/08/14 05:27:55;;;;;;;;;;;;;;;21.67;63.42;101860.16;1587660;38;152252;-53
2021/08/14 05:29:27;;;;;;;;;;;;;;;21.65;63.47;101857.66;1586129;38;151873;-53
2021/08/14 05:30:59;;;;;;;;;;;;;;;21.63;63.67;101859.91;1586669;38;152423;-52
2021/08/14 05:32:31;;;;;;;;;;;;;;;21.61;63.66;101862.19;1591155;38;151882;-53
2021/08/14 05:34:05;;;;;;;;;;;;;;;21.63;63.25;101853.44;1587769;38;152980;-53
2021/08/14 05:35:37;;;;;;;;;;;;;;;21.65;63.37;101860.47;1588689;38;153454;-52
2021/08/14 05:37:08;;;;;;;;;;;;;;;21.67;63.04;101848.91;1586084;30;153554;-53
2021/08/14 05:38:40;;;;;;;;;;;;;;;21.67;63.40;101855.38;1585982;38;153216;-53
2021/08/14 05:40:13;;;;;;;;;;;;;;;21.68;63.04;101857.06;1587571;38;153024;-53
2021/08/14 05:41:47;;;;;;;;;;;;;;;21.68;63.37;101856.22;1586448;38;152564;-53
2021/08/14 05:43:19;;;;;;;;;;;;;;;21.67;63.35;101857.34;1589351;30;152912;-53
2021/08/14 05:44:51;;;;;;;;;;;;;;;21.69;63.19;101864.38;1588089;30;153330;-54
2021/08/14 05:46:23;;;;;;;;;;;;;;;21.68;63.14;101867.47;1586406;38;153816;-53
2021/08/14 05:47:55;;;;;;;;;;;;;;;21.68;63.33;101868.31;1587048;30;153027;-53
2021/08/14 05:49:27;;;;;;;;;;;;;;;21.69;63.02;101863.53;1586948;38;152553;-53
2021/08/14 05:50:58;;;;;;;;;;;;;;;21.67;63.20;101858.19;1588184;30;153068;-53
2021/08/14 05:52:30;;;;;;;;;;;;;;;21.69;62.96;101857.91;1587625;38;153694;-53
2021/08/14 05:54:02;;;;;;;;;;;;;;;21.67;63.14;101872.25;1588906;30;153505;-53
2021/08/14 05:55:35;;;;;;;;;;;;;;;21.69;62.85;101861.56;1588237;38;152133;-54
2021/08/14 05:57:06;;;;;;;;;;;;;;;21.66;63.01;101872.56;1586548;38;153348;-53
2021/08/14 05:58:38;;;;;;;;;;;;;;;21.64;63.26;101870.03;1588097;38;153920;-53
2021/08/14 06:00:11;;;;;;;;;;;;;;;21.65;63.18;101876.50;1588503;30;153518;-53
2021/08/14 06:01:43;;;;;;;;;;;;;;;21.66;63.36;101875.38;1587939;38;154074;-53
2021/08/14 06:03:15;;;;;;;;;;;;;;;21.64;63.09;101872.84;1587294;30;153811;-53
2021/08/14 06:04:47;;;;;;;;;;;;;;;21.63;63.28;101868.34;1587344;30;154299;-53
2021/08/14 06:06:18;;;;;;;;;;;;;;;21.64;63.46;101877.63;1588434;30;153398;-53
2021/08/14 06:07:50;;;;;;;;;;;;;;;21.63;63.23;101865.53;1588750;38;154052;-53
2021/08/14 06:09:22;;;;;;;;;;;;;;;21.63;63.13;101882.41;1587913;38;153593;-52
2021/08/14 06:10:54;;;;;;;;;;;;;;;21.63;63.42;101876.78;1588304;38;154278;-53
2021/08/14 06:12:26;;;;;;;;;;;;;;;21.62;63.39;101866.66;1587839;38;153432;-52
2021/08/14 06:13:58;;;;;;;;;;;;;;;21.62;63.55;101874.28;1586716;38;153415;-53
2021/08/14 06:15:30;;;;;;;;;;;;;;;21.64;63.37;101866.38;1589580;38;155269;-53
2021/08/14 06:17:01;;;;;;;;;;;;;;;21.64;63.17;101866.38;1587226;38;152104;-54
2021/08/14 06:18:33;;;;;;;;;;;;;;;21.65;63.44;101868.06;1587156;30;152107;-53
2021/08/14 06:20:06;;;;;;;;;;;;;;;21.64;63.32;101861.59;1586031;30;152107;-53
2021/08/14 06:21:38;;;;;;;;;;;;;;;21.64;63.13;101869.19;1589265;38;151761;-54
2021/08/14 06:23:10;;;;;;;;;;;;;;;21.65;63.22;101873.69;1588073;38;152216;-52
2021/08/14 06:24:42;;;;;;;;;;;;;;;21.64;63.32;101875.66;1588268;38;152022;-53
2021/08/14 06:26:13;;;;;;;;;;;;;;;21.61;63.41;101870.63;1587918;38;151888;-53
2021/08/14 06:27:45;;;;;;;;;;;;;;;21.61;63.18;101865.00;1588422;38;152501;-53
2021/08/14 06:29:17;;;;;;;;;;;;;;;21.62;63.16;101872.28;1588604;38;151996;-53
2021/08/14 06:30:49;;;;;;;;;;;;;;;21.62;63.25;101879.91;1588114;38;152667;-53
2021/08/14 06:32:21;;;;;;;;;;;;;;;21.58;63.58;101876.81;1588066;30;152667;-53
2021/08/14 06:33:53;;;;;;;;;;;;;;;21.58;63.58;101885.25;1587611;38;152455;-53
2021/08/14 06:35:25;;;;;;;;;;;;;;;21.59;63.36;101877.66;1589308;38;152271;-53
2021/08/14 06:36:57;;;;;;;;;;;;;;;21.61;63.51;101867.81;1588645;38;152129;-53
2021/08/14 06:38:29;;;;;;;;;;;;;;;21.58;63.66;101859.94;1591320;38;152105;-52
2021/08/14 06:40:00;;;;;;;;;;;;;;;21.59;63.45;101866.41;1587881;38;152137;-53
2021/08/14 06:41:32;;;;;;;;;;;;;;;21.58;63.31;101873.19;1587930;38;153687;-53
2021/08/14 06:43:04;;;;;;;;;;;;;;;21.58;63.75;101885.25;1589680;30;152943;-53
2021/08/14 06:44:37;;;;;;;;;;;;;;;21.56;63.51;101876.28;1587353;30;152803;-53
2021/08/14 06:46:09;;;;;;;;;;;;;;;21.56;63.71;101881.91;1588369;38;153465;-53
2021/08/14 06:47:41;;;;;;;;;;;;;;;21.55;63.55;101871.81;1588609;38;152936;-53
2021/08/14 06:49:12;;;;;;;;;;;;;;;21.56;63.79;101881.91;1585650;38;153525;-53
2021/08/14 06:50:44;;;;;;;;;;;;;;;21.56;63.76;101881.91;1587467;38;153602;-54
2021/08/14 06:52:20;;;;;;;;;;;;;;;21.57;63.47;101877.16;1587152;38;152860;-53
2021/08/14 06:53:52;;;;;;;;;;;;;;;21.56;63.87;101883.91;1587105;38;153490;-53
2021/08/14 06:55:24;;;;;;;;;;;;;;;21.55;63.98;101885.84;1586041;38;152812;-53
2021/08/14 06:56:56;;;;;;;;;;;;;;;21.56;64.06;101895.13;1587892;38;153380;-53
2021/08/14 06:58:28;;;;;;;;;;;;;;;21.57;63.96;101877.16;1587123;38;153804;-53
2021/08/14 07:00:00;;;;;;;;;;;;;;;21.56;64.01;101881.91;1588542;38;152517;-53
2021/08/14 07:01:32;;;;;;;;;;;;;;;21.57;63.98;101877.16;1589305;38;154182;-53
2021/08/14 07:03:05;;;;;;;;;;;;;;;21.56;64.01;101881.91;1588659;38;154122;-52
2021/08/14 07:04:38;;;;;;;;;;;;;;;21.54;64.12;101875.75;1588007;38;153846;-53
2021/08/14 07:06:09;;;;;;;;;;;;;;;21.55;63.99;101874.63;1589052;30;153839;-53
2021/08/14 07:07:41;;;;;;;;;;;;;;;21.54;63.81;101867.31;1588683;38;154059;-53
2021/08/14 07:09:13;;;;;;;;;;;;;;;21.54;63.62;101872.94;1587229;38;154411;-53
2021/08/14 07:10:45;;;;;;;;;;;;;;;21.52;64.18;101869.59;1589015;38;154076;-53
2021/08/14 07:12:17;;;;;;;;;;;;;;;21.54;64.11;101881.38;1587432;38;154569;-53
2021/08/14 07:13:50;;;;;;;;;;;;;;;21.54;63.79;101878.56;1588987;38;153878;-53
2021/08/14 07:15:22;;;;;;;;;;;;;;;21.55;63.91;101874.63;1588605;38;153727;-53
2021/08/14 07:16:54;;;;;;;;;;;;;;;21.52;64.28;101872.41;1589499;38;154108;-53
2021/08/14 07:18:26;;;;;;;;;;;;;;;21.52;63.91;101872.41;1588402;38;154297;-53
2021/08/14 07:19:57;;;;;;;;;;;;;;;21.52;64.12;101877.19;1588315;38;153521;-52
2021/08/14 07:21:29;;;;;;;;;;;;;;;21.52;64.21;101878.03;1591168;38;153545;-53
2021/08/14 07:23:01;;;;;;;;;;;;;;;21.51;64.10;101879.16;1588760;38;152182;-53
2021/08/14 07:24:33;;;;;;;;;;;;;;;21.53;63.98;101870.44;1588605;30;152142;-53
2021/08/14 07:26:05;;;;;;;;;;;;;;;21.52;64.18;101865.94;1589157;38;152087;-53
2021/08/14 07:27:37;;;;;;;;;;;;;;;21.55;64.13;101873.78;1589079;38;152200;-53
2021/08/14 07:29:09;;;;;;;;;;;;;;;21.52;64.07;101871.56;1589213;30;152061;-53
2021/08/14 07:30:41;;;;;;;;;;;;;;;21.52;63.97;101872.41;1587960;38;152020;-52
2021/08/14 07:32:13;;;;;;;;;;;;;;;21.53;64.17;101867.63;1588371;38;151868;-52
2021/08/14 07:33:45;;;;;;;;;;;;;;;21.49;63.96;101872.97;1588792;38;152164;-53
2021/08/14 07:35:17;;;;;;;;;;;;;;;21.52;64.29;101863.97;1588469;38;152213;-53
2021/08/14 07:36:52;;;;;;;;;;;;;;;21.50;63.97;101866.22;1589122;38;152177;-52
2021/08/14 07:38:24;;;;;;;;;;;;;;;21.51;63.90;101869.88;1586709;30;151976;-52
2021/08/14 07:39:56;;;;;;;;;;;;;;;21.51;64.43;101869.88;1590593;30;152157;-53
2021/08/14 07:41:28;;;;;;;;;;;;;;;21.50;64.08;101874.66;1589806;30;152050;-53
2021/08/14 07:42:59;;;;;;;;;;;;;;;21.50;64.03;101880.28;1590318;38;152275;-52
2021/08/14 07:44:31;;;;;;;;;;;;;;;21.50;64.54;101879.44;1588946;38;153031;-53
2021/08/14 07:46:18;;;;;;;;;;;;;;;21.51;63.95;101879.16;1589786;38;153161;-53
2021/08/14 07:47:51;;;;;;;;;;;;;;;21.51;64.23;101896.00;1589416;38;153163;-53
2021/08/14 07:49:23;;;;;;;;;;;;;;;21.52;64.03;101882.81;1586327;30;153479;-52